createdAt,value
2022-09-12T00:01:37.830Z,12.08
2022-09-12T00:04:07.490Z,12.08
2022-09-12T00:06:38.869Z,12.10
2022-09-12T00:09:13.635Z,12.06
2022-09-12T00:11:46.590Z,12.06
2022-09-12T00:14:18.557Z,12.06
2022-09-12T00:16:48.816Z,12.11
2022-09-12T00:19:19.859Z,12.15
2022-09-12T00:21:49.840Z,12.15
2022-09-12T00:24:19.688Z,12.18
2022-09-12T00:26:49.693Z,12.21
2022-09-12T00:29:21.277Z,12.21
2022-09-12T00:31:51.236Z,12.21
2022-09-12T00:34:21.654Z,12.21
2022-09-12T00:36:51.334Z,12.17
2022-09-12T00:39:21.059Z,12.15
2022-09-12T00:41:51.178Z,12.21
2022-09-12T00:44:23.970Z,12.26
2022-09-12T00:47:09.049Z,12.35
2022-09-12T00:50:02.353Z,12.31
2022-09-12T00:52:45.835Z,12.29
2022-09-12T00:55:26.534Z,12.26
2022-09-12T00:58:03.610Z,12.32
2022-09-12T01:00:33.732Z,12.32
2022-09-12T01:03:09.012Z,12.36
2022-09-12T01:05:45.594Z,12.39
2022-09-12T01:08:15.985Z,12.35
2022-09-12T01:10:45.472Z,12.39
2022-09-12T01:13:15.480Z,12.43
2022-09-12T01:15:45.162Z,12.48
2022-09-12T01:18:30.076Z,12.45
2022-09-12T01:21:40.316Z,12.42
2022-09-12T01:24:35.728Z,12.35
2022-09-12T01:27:19.312Z,12.38
2022-09-12T01:30:00.717Z,12.39
2022-09-12T01:32:39.833Z,12.38
2022-09-12T01:35:26.868Z,12.41
2022-09-12T01:38:12.943Z,12.45
2022-09-12T01:41:02.828Z,12.45
2022-09-12T01:43:45.535Z,12.48
2022-09-12T01:46:24.812Z,12.50
2022-09-12T01:49:23.123Z,12.53
2022-09-12T01:52:06.405Z,12.45
2022-09-12T01:54:45.248Z,12.45
2022-09-12T01:57:37.785Z,12.42
2022-09-12T02:00:12.257Z,12.41
2022-09-12T02:03:11.638Z,12.49
2022-09-12T02:06:05.760Z,12.49
2022-09-12T02:08:43.800Z,12.52
2022-09-12T02:11:14.992Z,12.50
2022-09-12T02:13:55.182Z,12.49
2022-09-12T02:16:37.997Z,12.48
2022-09-12T02:19:31.077Z,12.49
2022-09-12T02:22:03.790Z,12.49
2022-09-12T02:24:44.965Z,12.52
2022-09-12T02:27:49.524Z,12.49
2022-09-12T02:30:20.867Z,12.50
2022-09-12T02:33:14.252Z,12.55
2022-09-12T02:35:50.204Z,12.48
2022-09-12T02:38:45.795Z,12.48
2022-09-12T02:41:21.140Z,12.42
2022-09-12T02:43:53.665Z,12.34
2022-09-12T02:46:31.887Z,12.24
2022-09-12T02:49:02.249Z,12.21
2022-09-12T02:51:32.520Z,12.13
2022-09-12T02:54:04.229Z,12.04
2022-09-12T02:56:34.776Z,11.94
2022-09-12T02:59:11.231Z,11.87
2022-09-12T03:02:08.926Z,11.74
2022-09-12T03:05:09.126Z,11.66
2022-09-12T03:08:14.088Z,11.57
2022-09-12T03:11:21.070Z,11.44
2022-09-12T03:14:11.172Z,11.36
2022-09-12T03:16:55.024Z,11.32
2022-09-12T03:20:04.601Z,11.33
2022-09-12T03:22:51.142Z,11.27
2022-09-12T03:25:32.311Z,11.27
2022-09-12T03:28:08.469Z,11.33
2022-09-12T03:30:49.595Z,11.36
2022-09-12T03:33:21.793Z,11.44
2022-09-12T03:35:53.006Z,11.42
2022-09-12T03:38:24.207Z,11.32
2022-09-12T03:40:54.976Z,11.20
2022-09-12T03:43:25.119Z,11.04
2022-09-12T03:45:55.534Z,11.08
2022-09-12T03:48:25.241Z,11.11
2022-09-12T03:50:54.431Z,11.04
2022-09-12T03:53:23.987Z,10.96
2022-09-12T03:55:53.728Z,10.88
2022-09-12T03:58:23.636Z,10.79
2022-09-12T04:00:53.421Z,10.79
2022-09-12T04:03:22.665Z,10.85
2022-09-12T04:05:52.245Z,10.84
2022-09-12T04:08:21.986Z,10.75
2022-09-12T04:10:51.713Z,10.72
2022-09-12T04:13:21.373Z,10.64
2022-09-12T04:16:01.745Z,10.57
2022-09-12T04:18:32.090Z,10.54
2022-09-12T04:21:09.295Z,10.51
2022-09-12T04:23:39.830Z,10.46
2022-09-12T04:26:10.238Z,10.46
2022-09-12T04:28:40.835Z,10.44
2022-09-12T04:31:14.123Z,10.41
2022-09-12T04:33:45.459Z,10.34
2022-09-12T04:36:18.027Z,10.36
2022-09-12T04:38:49.620Z,10.32
2022-09-12T04:41:28.090Z,10.32
2022-09-12T04:44:00.700Z,10.32
2022-09-12T04:46:32.545Z,10.33
2022-09-12T04:49:02.875Z,10.37
2022-09-12T04:51:35.968Z,10.38
2022-09-12T04:54:09.355Z,10.41
2022-09-12T04:56:43.648Z,10.40
2022-09-12T04:59:16.883Z,10.37
2022-09-12T05:01:46.844Z,10.33
2022-09-12T05:04:17.233Z,10.29
2022-09-12T05:06:48.573Z,10.30
2022-09-12T05:09:18.423Z,10.26
2022-09-12T05:12:05.261Z,10.20
2022-09-12T05:14:35.963Z,10.21
2022-09-12T05:17:07.124Z,10.20
2022-09-12T05:19:37.984Z,10.17
2022-09-12T05:22:08.062Z,10.12
2022-09-12T05:24:40.215Z,10.09
2022-09-12T05:27:11.795Z,10.08
2022-09-12T05:29:41.770Z,10.06
2022-09-12T05:32:11.506Z,10.02
2022-09-12T05:34:42.360Z,9.99
2022-09-12T05:37:12.403Z,9.92
2022-09-12T05:39:42.362Z,9.90
2022-09-12T05:42:11.611Z,9.86
2022-09-12T05:44:41.293Z,9.92
2022-09-12T05:47:14.441Z,9.99
2022-09-12T05:49:46.553Z,10.03
2022-09-12T05:52:17.271Z,9.99
2022-09-12T05:54:48.860Z,9.93
2022-09-12T05:57:19.138Z,9.89
2022-09-12T05:59:48.722Z,9.90
2022-09-12T06:02:18.313Z,9.93
2022-09-12T06:04:48.077Z,9.93
2022-09-12T06:07:17.744Z,9.86
2022-09-12T06:09:47.380Z,9.85
2022-09-12T06:12:17.033Z,9.88
2022-09-12T06:14:46.473Z,9.88
2022-09-12T06:17:16.224Z,9.85
2022-09-12T06:19:45.429Z,9.86
2022-09-12T06:22:15.095Z,9.86
2022-09-12T06:24:44.800Z,9.92
2022-09-12T06:27:15.093Z,9.95
2022-09-12T06:29:45.219Z,9.90
2022-09-12T06:32:16.107Z,9.96
2022-09-12T06:34:48.754Z,10.00
2022-09-12T06:37:19.002Z,10.05
2022-09-12T06:39:49.762Z,10.06
2022-09-12T06:42:21.136Z,10.12
2022-09-12T06:44:58.983Z,10.17
2022-09-12T06:47:28.370Z,10.21
2022-09-12T06:49:58.247Z,10.29
2022-09-12T06:52:30.241Z,10.37
2022-09-12T06:55:00.181Z,10.40
2022-09-12T06:57:33.026Z,10.40
2022-09-12T07:00:03.234Z,10.41
2022-09-12T07:02:33.943Z,10.37
2022-09-12T07:05:03.798Z,10.41
2022-09-12T07:07:35.467Z,10.40
2022-09-12T07:10:06.725Z,10.40
2022-09-12T07:12:36.386Z,10.40
2022-09-12T07:15:06.343Z,10.43
2022-09-12T07:17:36.001Z,10.40
2022-09-12T07:20:05.951Z,10.37
2022-09-12T07:22:35.591Z,10.34
2022-09-12T07:25:06.188Z,10.34
2022-09-12T07:27:36.580Z,10.27
2022-09-12T07:30:08.935Z,10.27
2022-09-12T07:32:38.756Z,10.29
2022-09-12T07:35:08.858Z,10.29
2022-09-12T07:37:39.010Z,10.24
2022-09-12T07:40:09.101Z,10.26
2022-09-12T07:42:38.822Z,10.24
2022-09-12T07:45:09.029Z,10.34
2022-09-12T07:47:38.830Z,10.24
2022-09-12T07:50:08.922Z,10.29
2022-09-12T07:52:38.584Z,10.26
2022-09-12T07:55:08.522Z,10.26
2022-09-12T07:57:38.569Z,10.26
2022-09-12T08:00:11.816Z,10.23
2022-09-12T08:02:42.090Z,10.23
2022-09-12T08:05:11.926Z,10.29
2022-09-12T08:07:41.548Z,10.30
2022-09-12T08:10:12.252Z,10.24
2022-09-12T08:12:42.633Z,10.20
2022-09-12T08:15:13.028Z,10.20
2022-09-12T08:17:42.685Z,10.16
2022-09-12T08:20:13.654Z,10.13
2022-09-12T08:22:44.384Z,10.12
2022-09-12T08:25:14.430Z,10.05
2022-09-12T08:27:46.232Z,10.02
2022-09-12T08:30:16.618Z,9.99
2022-09-12T08:32:45.830Z,9.99
2022-09-12T08:35:16.223Z,9.96
2022-09-12T08:37:46.795Z,9.90
2022-09-12T08:40:18.609Z,9.95
2022-09-12T08:43:09.053Z,9.93
2022-09-12T08:45:46.592Z,9.93
2022-09-12T08:48:17.050Z,9.93
2022-09-12T08:50:49.991Z,9.89
2022-09-12T08:53:24.609Z,9.82
2022-09-12T08:56:01.822Z,9.77
2022-09-12T08:58:44.730Z,9.71
2022-09-12T09:01:47.347Z,9.62
2022-09-12T09:04:39.467Z,9.58
2022-09-12T09:07:39.504Z,9.57
2022-09-12T09:10:17.012Z,9.51
2022-09-12T09:13:01.987Z,9.49
2022-09-12T09:16:00.247Z,9.49
2022-09-12T09:18:40.729Z,9.48
2022-09-12T09:21:25.289Z,9.51
2022-09-12T09:24:04.730Z,9.52
2022-09-12T09:26:47.153Z,9.59
2022-09-12T09:29:21.054Z,9.68
2022-09-12T09:31:54.727Z,9.82
2022-09-12T09:34:27.263Z,9.99
2022-09-12T09:37:19.527Z,10.12
2022-09-12T09:40:19.171Z,10.20
2022-09-12T09:42:58.224Z,10.27
2022-09-12T09:45:31.353Z,10.36
2022-09-12T09:48:19.295Z,10.47
2022-09-12T09:50:51.248Z,10.56
2022-09-12T09:53:49.668Z,10.61
2022-09-12T09:56:41.140Z,10.77
2022-09-12T09:59:21.635Z,10.96
2022-09-12T10:02:04.783Z,11.16
2022-09-12T10:04:43.311Z,11.37
2022-09-12T10:07:25.899Z,11.59
2022-09-12T10:10:24.812Z,11.73
2022-09-12T10:13:11.055Z,11.84
2022-09-12T10:15:47.988Z,11.94
2022-09-12T10:18:39.828Z,12.11
2022-09-12T10:21:31.951Z,12.20
2022-09-12T10:24:08.406Z,12.34
2022-09-12T10:26:41.815Z,12.46
2022-09-12T10:29:33.283Z,12.63
2022-09-12T10:32:07.641Z,12.80
2022-09-12T10:34:41.234Z,12.93
2022-09-12T10:37:38.586Z,13.07
2022-09-12T10:40:22.605Z,13.20
2022-09-12T10:42:55.487Z,13.32
2022-09-12T10:45:30.164Z,13.38
2022-09-12T10:48:07.336Z,13.51
2022-09-12T10:50:47.013Z,13.72
2022-09-12T10:53:24.613Z,13.87
2022-09-12T10:56:03.317Z,14.03
2022-09-12T10:58:56.340Z,14.20
2022-09-12T11:01:37.891Z,14.31
2022-09-12T11:04:22.795Z,14.38
2022-09-12T11:07:13.635Z,14.50
2022-09-12T11:09:56.073Z,14.54
2022-09-12T11:12:34.060Z,14.65
2022-09-12T11:15:34.811Z,14.77
2022-09-12T11:18:46.141Z,14.87
2022-09-12T11:21:27.956Z,14.98
2022-09-12T11:24:29.342Z,15.08
2022-09-12T11:27:14.391Z,15.22
2022-09-12T11:30:12.286Z,15.43
2022-09-12T11:32:42.630Z,15.54
2022-09-12T11:35:20.945Z,15.64
2022-09-12T11:38:08.449Z,15.74
2022-09-12T11:41:00.868Z,15.85
2022-09-12T11:43:36.338Z,15.93
2022-09-12T11:46:45.210Z,15.98
2022-09-12T11:49:36.710Z,15.98
2022-09-12T11:52:16.969Z,15.88
2022-09-12T11:55:07.870Z,15.77
2022-09-12T11:57:55.292Z,15.71
2022-09-12T12:00:34.370Z,15.68
2022-09-12T12:03:16.014Z,15.64
2022-09-12T12:05:55.705Z,15.58
2022-09-12T12:08:28.874Z,15.51
2022-09-12T12:11:01.960Z,15.43
2022-09-12T12:13:36.344Z,15.39
2022-09-12T12:16:29.479Z,15.33
2022-09-12T12:19:18.289Z,15.37
2022-09-12T12:21:54.622Z,15.25
2022-09-12T12:24:26.921Z,14.93
2022-09-12T12:27:05.819Z,14.88
2022-09-12T12:29:44.272Z,14.54
2022-09-12T12:32:24.947Z,14.45
2022-09-12T12:35:03.683Z,14.33
2022-09-12T12:37:33.717Z,14.37
2022-09-12T12:40:27.422Z,14.58
2022-09-12T12:43:06.503Z,14.91
2022-09-12T12:45:39.253Z,15.10
2022-09-12T12:48:16.884Z,15.20
2022-09-12T12:50:48.071Z,15.16
2022-09-12T12:53:28.985Z,15.32
2022-09-12T12:55:59.313Z,15.44
2022-09-12T12:58:42.327Z,15.61
2022-09-12T13:01:23.899Z,15.80
2022-09-12T13:04:21.501Z,16.35
2022-09-12T13:07:09.544Z,17.14
2022-09-12T13:09:46.116Z,17.48
2022-09-12T13:12:26.099Z,18.38
2022-09-12T13:15:01.549Z,18.81
2022-09-12T13:17:33.500Z,18.75
2022-09-12T13:20:27.740Z,19.09
2022-09-12T13:22:59.461Z,19.36
2022-09-12T13:25:34.025Z,19.15
2022-09-12T13:28:13.404Z,20.16
2022-09-12T13:31:05.116Z,19.56
2022-09-12T13:33:52.275Z,20.09
2022-09-12T13:36:31.235Z,20.69
2022-09-12T13:39:39.203Z,20.11
2022-09-12T13:42:53.685Z,19.74
2022-09-12T13:45:28.185Z,19.78
2022-09-12T13:48:05.724Z,19.92
2022-09-12T13:50:44.226Z,19.68
2022-09-12T13:53:21.089Z,19.71
2022-09-12T13:55:59.146Z,20.30
2022-09-12T13:58:34.832Z,20.07
2022-09-12T14:01:17.184Z,20.29
2022-09-12T14:04:16.400Z,21.37
2022-09-12T14:06:52.152Z,22.78
2022-09-12T14:09:36.171Z,23.68
2022-09-12T14:12:15.642Z,24.14
2022-09-12T14:14:49.434Z,23.22
2022-09-12T14:17:25.254Z,22.65
2022-09-12T14:19:55.726Z,22.51
2022-09-12T14:22:25.578Z,22.52
2022-09-12T14:24:56.043Z,22.41
2022-09-12T14:27:48.810Z,22.44
2022-09-12T14:30:25.231Z,21.90
2022-09-12T14:33:13.565Z,21.61
2022-09-12T14:35:47.887Z,21.20
2022-09-12T14:38:24.017Z,20.93
2022-09-12T14:41:11.321Z,21.32
2022-09-12T14:43:55.083Z,21.67
2022-09-12T14:46:37.158Z,21.78
2022-09-12T14:49:14.859Z,21.71
2022-09-12T14:52:31.203Z,21.89
2022-09-12T14:55:03.733Z,22.10
2022-09-12T14:57:43.123Z,22.47
2022-09-12T15:00:13.373Z,22.51
2022-09-12T15:02:46.983Z,22.54
2022-09-12T15:05:23.040Z,22.73
2022-09-12T15:07:54.822Z,22.84
2022-09-12T15:10:27.580Z,22.43
2022-09-12T15:13:18.464Z,22.10
2022-09-12T15:15:53.756Z,21.63
2022-09-12T15:18:26.973Z,21.82
2022-09-12T15:21:02.320Z,23.16
2022-09-12T15:23:48.809Z,23.24
2022-09-12T15:26:28.576Z,23.43
2022-09-12T15:28:59.170Z,23.53
2022-09-12T15:31:31.970Z,23.18
2022-09-12T15:34:04.144Z,23.02
2022-09-12T15:36:34.253Z,23.94
2022-09-12T15:39:06.789Z,24.32
2022-09-12T15:41:39.084Z,23.63
2022-09-12T15:44:13.500Z,23.18
2022-09-12T15:46:44.037Z,23.63
2022-09-12T15:49:13.743Z,23.85
2022-09-12T15:51:43.670Z,23.80
2022-09-12T15:54:17.395Z,23.77
2022-09-12T15:56:47.865Z,23.84
2022-09-12T15:59:17.846Z,23.88
2022-09-12T16:01:48.276Z,23.30
2022-09-12T16:04:26.884Z,22.94
2022-09-12T16:06:58.190Z,22.96
2022-09-12T16:09:28.356Z,22.72
2022-09-12T16:11:58.940Z,22.51
2022-09-12T16:14:28.773Z,22.44
2022-09-12T16:16:58.477Z,22.75
2022-09-12T16:19:28.204Z,23.54
2022-09-12T16:21:57.944Z,25.11
2022-09-12T16:24:27.719Z,25.48
2022-09-12T16:27:01.169Z,24.80
2022-09-12T16:29:31.698Z,24.17
2022-09-12T16:32:01.465Z,23.74
2022-09-12T16:34:31.159Z,23.45
2022-09-12T16:37:00.842Z,23.36
2022-09-12T16:39:30.545Z,23.47
2022-09-12T16:42:00.261Z,23.67
2022-09-12T16:44:29.966Z,23.56
2022-09-12T16:46:59.605Z,23.10
2022-09-12T16:49:30.132Z,22.52
2022-09-12T16:52:00.724Z,21.69
2022-09-12T16:54:31.090Z,21.21
2022-09-12T16:57:00.864Z,21.04
2022-09-12T16:59:30.511Z,21.12
2022-09-12T17:02:00.266Z,21.44
2022-09-12T17:04:30.252Z,22.00
2022-09-12T17:07:00.627Z,22.30
2022-09-12T17:09:30.503Z,22.52
2022-09-12T17:12:00.197Z,22.23
2022-09-12T17:14:30.811Z,21.96
2022-09-12T17:17:00.550Z,21.81
2022-09-12T17:19:34.636Z,21.58
2022-09-12T17:22:04.885Z,21.38
2022-09-12T17:24:34.703Z,21.14
2022-09-12T17:27:04.915Z,20.93
2022-09-12T17:29:36.477Z,20.72
2022-09-12T17:32:06.838Z,20.53
2022-09-12T17:34:36.741Z,20.43
2022-09-12T17:37:06.675Z,20.36
2022-09-12T17:39:36.373Z,20.30
2022-09-12T17:42:09.081Z,20.21
2022-09-12T17:44:39.384Z,20.01
2022-09-12T17:47:09.963Z,19.92
2022-09-12T17:49:40.530Z,19.82
2022-09-12T17:52:10.183Z,19.73
2022-09-12T17:54:40.911Z,19.68
2022-09-12T17:57:11.271Z,19.60
2022-09-12T17:59:41.345Z,19.58
2022-09-12T18:02:14.601Z,19.54
2022-09-12T18:04:50.399Z,19.64
2022-09-12T18:07:21.927Z,19.70
2022-09-12T18:09:53.019Z,19.75
2022-09-12T18:12:22.823Z,19.78
2022-09-12T18:14:52.656Z,19.78
2022-09-12T18:17:22.680Z,19.79
2022-09-12T18:19:53.942Z,19.85
2022-09-12T18:22:24.211Z,19.82
2022-09-12T18:24:53.879Z,19.78
2022-09-12T18:27:23.554Z,19.71
2022-09-12T18:30:10.610Z,19.61
2022-09-12T18:32:43.118Z,19.56
2022-09-12T18:35:13.606Z,19.51
2022-09-12T18:37:45.050Z,19.53
2022-09-12T18:40:15.007Z,19.46
2022-09-12T18:42:44.819Z,19.49
2022-09-12T18:45:14.738Z,19.45
2022-09-12T18:47:44.445Z,19.40
2022-09-12T18:50:14.161Z,19.31
2022-09-12T18:52:43.861Z,19.37
2022-09-12T18:55:13.545Z,19.39
2022-09-12T18:57:43.264Z,19.39
2022-09-12T19:00:14.625Z,19.41
2022-09-12T19:02:44.981Z,19.46
2022-09-12T19:05:14.968Z,19.57
2022-09-12T19:07:44.654Z,19.63
2022-09-12T19:10:17.071Z,19.53
2022-09-12T19:12:47.570Z,19.47
2022-09-12T19:15:17.383Z,19.39
2022-09-12T19:17:47.105Z,19.31
2022-09-12T19:20:16.896Z,19.27
2022-09-12T19:22:46.597Z,19.19
2022-09-12T19:25:16.494Z,19.10
2022-09-12T19:27:46.441Z,19.02
2022-09-12T19:30:18.878Z,18.98
2022-09-12T19:32:51.699Z,18.92
2022-09-12T19:35:21.963Z,18.89
2022-09-12T19:37:51.662Z,18.88
2022-09-12T19:40:21.394Z,18.91
2022-09-12T19:42:51.144Z,18.88
2022-09-12T19:45:20.837Z,18.87
2022-09-12T19:47:50.478Z,18.84
2022-09-12T19:50:20.140Z,18.85
2022-09-12T19:52:49.829Z,18.79
2022-09-12T19:55:19.625Z,18.84
2022-09-12T19:57:49.292Z,18.85
2022-09-12T20:00:19.118Z,18.87
2022-09-12T20:02:52.916Z,18.91
2022-09-12T20:05:25.605Z,18.98
2022-09-12T20:07:55.656Z,19.03
2022-09-12T20:10:26.482Z,19.12
2022-09-12T20:12:56.138Z,19.12
2022-09-12T20:15:25.842Z,19.10
2022-09-12T20:17:56.978Z,19.06
2022-09-12T20:20:27.800Z,19.05
2022-09-12T20:22:57.475Z,19.00
2022-09-12T20:25:27.627Z,18.88
2022-09-12T20:28:00.145Z,18.76
2022-09-12T20:30:30.371Z,18.75
2022-09-12T20:33:00.347Z,18.68
2022-09-12T20:35:30.007Z,18.67
2022-09-12T20:37:59.739Z,18.61
2022-09-12T20:40:30.244Z,18.57
2022-09-12T20:42:59.918Z,18.75
2022-09-12T20:45:29.850Z,18.65
2022-09-12T20:47:59.521Z,18.57
2022-09-12T20:50:29.219Z,18.54
2022-09-12T20:52:58.993Z,18.44
2022-09-12T20:55:28.708Z,18.34
2022-09-12T20:57:58.671Z,18.30
2022-09-12T21:00:28.360Z,18.20
2022-09-12T21:02:58.225Z,18.07
2022-09-12T21:05:27.903Z,18.02
2022-09-12T21:07:57.601Z,17.93
2022-09-12T21:10:27.297Z,17.85
2022-09-12T21:12:57.230Z,17.78
2022-09-12T21:15:26.943Z,17.76
2022-09-12T21:17:56.686Z,17.75
2022-09-12T21:20:26.397Z,17.71
2022-09-12T21:22:56.312Z,17.68
2022-09-12T21:25:26.000Z,17.69
2022-09-12T21:27:55.705Z,17.62
2022-09-12T21:30:26.088Z,17.59
2022-09-12T21:32:55.790Z,17.59
2022-09-12T21:35:25.675Z,17.56
2022-09-12T21:37:55.514Z,17.55
2022-09-12T21:40:25.193Z,17.52
2022-09-12T21:42:54.977Z,17.48
2022-09-12T21:45:24.766Z,17.42
2022-09-12T21:47:54.518Z,17.38
2022-09-12T21:50:24.430Z,17.36
2022-09-12T21:52:54.681Z,17.39
2022-09-12T21:55:28.340Z,17.42
2022-09-12T21:57:58.899Z,17.39
2022-09-12T22:00:29.037Z,17.42
2022-09-12T22:02:59.090Z,17.49
2022-09-12T22:05:33.730Z,17.52
2022-09-12T22:08:04.065Z,17.44
2022-09-12T22:10:34.121Z,17.41
2022-09-12T22:13:04.314Z,17.42
2022-09-12T22:15:40.546Z,17.41
2022-09-12T22:18:11.146Z,17.35
2022-09-12T22:20:40.943Z,17.35
2022-09-12T22:23:32.423Z,17.32
2022-09-12T22:26:04.459Z,17.30
2022-09-12T22:28:34.689Z,17.25
2022-09-12T22:31:04.429Z,17.25
2022-09-12T22:33:34.295Z,17.20
2022-09-12T22:36:04.295Z,17.24
2022-09-12T22:38:34.081Z,17.23
2022-09-12T22:41:14.253Z,17.24
2022-09-12T22:43:44.555Z,17.24
2022-09-12T22:46:14.451Z,17.23
2022-09-12T22:48:44.412Z,17.20
2022-09-12T22:51:14.621Z,17.21
2022-09-12T22:53:44.493Z,17.24
2022-09-12T22:56:14.438Z,17.25
2022-09-12T22:58:44.678Z,17.27
2022-09-12T23:01:14.510Z,17.28
2022-09-12T23:03:44.349Z,17.24
2022-09-12T23:06:14.111Z,17.23
2022-09-12T23:08:43.940Z,17.21
2022-09-12T23:11:16.304Z,17.18
2022-09-12T23:13:48.504Z,17.18
2022-09-12T23:16:27.097Z,17.18
2022-09-12T23:18:57.770Z,17.18
2022-09-12T23:21:27.764Z,17.21
2022-09-12T23:23:57.669Z,17.18
2022-09-12T23:26:31.435Z,17.17
2022-09-12T23:29:03.402Z,17.18
2022-09-12T23:31:34.875Z,17.18
2022-09-12T23:34:07.169Z,17.18
2022-09-12T23:36:37.596Z,17.11
2022-09-12T23:39:07.624Z,17.07
2022-09-12T23:41:37.542Z,17.08
2022-09-12T23:44:07.436Z,17.04
2022-09-12T23:46:37.262Z,17.03
2022-09-12T23:49:07.048Z,17.13
2022-09-12T23:51:36.906Z,17.20
2022-09-12T23:54:06.649Z,17.20
2022-09-12T23:56:36.336Z,17.13
2022-09-12T23:59:06.962Z,17.10
